Time;durP1;ratioP1;P1;durP2;ratioP2;P2;SDS_P1;SDS_P2;PMS_P1;PMS_P2;Temp;Humidity;BMP_temperature;BMP_pressure;BME280_temperature;BME280_humidity;BME280_pressure;Samples;Min_cycle;Max_cycle;Signal;HPM_P1;HPM_P2
2022/04/01 00:01:43;;;;;;;3.03;1.35;;;3.00;99.90;;;;;;5016772;28;20045;-73
2022/04/01 00:04:09;;;;;;;2.10;1.40;;;3.00;99.90;;;;;;5070007;28;20045;-73
2022/04/01 00:06:35;;;;;;;1.88;1.15;;;2.90;99.90;;;;;;5040680;28;20037;-74
2022/04/01 00:09:00;;;;;;;2.20;1.20;;;2.80;99.90;;;;;;5043998;28;20122;-74
2022/04/01 00:11:26;;;;;;;2.35;1.60;;;2.70;99.90;;;;;;5066794;28;20091;-73
2022/04/01 00:13:52;;;;;;;1.40;1.02;;;3.80;99.90;;;;;;5042811;28;20036;-73
2022/04/01 00:16:18;;;;;;;1.60;1.23;;;2.50;99.90;;;;;;5077782;28;20090;-74
2022/04/01 00:18:44;;;;;;;1.88;1.23;;;2.50;99.90;;;;;;5073596;28;20125;-74
2022/04/01 00:21:09;;;;;;;1.60;1.10;;;2.70;99.90;;;;;;5072883;28;20052;-74
2022/04/01 00:23:35;;;;;;;4.30;1.50;;;3.10;99.90;;;;;;5026529;28;20056;-75
2022/04/01 00:26:01;;;;;;;1.98;1.30;;;2.30;99.90;;;;;;5040871;28;20040;-74
2022/04/01 00:28:26;;;;;;;3.70;1.30;;;2.30;99.90;;;;;;5065667;28;20051;-77
2022/04/01 00:30:54;;;;;;;1.73;1.23;;;2.30;99.90;;;;;;5053456;28;20075;-75
2022/04/01 00:33:20;;;;;;;4.50;1.55;;;3.40;99.90;;;;;;5038210;28;20052;-74
2022/04/01 00:35:46;;;;;;;2.60;1.50;;;2.20;99.90;;;;;;5045104;28;20369;-75
2022/04/01 00:38:12;;;;;;;1.92;1.40;;;3.10;99.90;;;;;;5063042;28;20112;-74
2022/04/01 00:40:41;;;;;;;2.58;1.38;;;2.30;99.90;;;;;;5038123;28;20091;-74
2022/04/01 00:43:07;;;;;;;3.90;1.80;;;2.30;99.90;;;;;;5070746;28;20045;-74
2022/04/01 00:45:33;;;;;;;1.55;1.20;;;2.20;99.90;;;;;;5076273;28;20055;-74
2022/04/01 00:48:14;;;;;;;4.50;1.17;;;2.30;99.90;;;;;;5043678;28;20247;-74
2022/04/01 00:50:40;;;;;;;2.50;1.50;;;2.20;99.90;;;;;;5044262;28;20045;-73
2022/04/01 00:53:05;;;;;;;2.22;1.30;;;2.20;99.90;;;;;;5047630;28;20044;-74
2022/04/01 00:55:31;;;;;;;2.72;1.40;;;3.70;99.90;;;;;;5042890;28;20056;-74
2022/04/01 00:57:57;;;;;;;2.42;1.55;;;3.30;99.90;;;;;;5059603;28;20048;-73
2022/04/01 01:00:25;;;;;;;1.88;1.30;;;2.50;99.90;;;;;;5050006;28;20226;-74
2022/04/01 01:02:51;;;;;;;3.42;1.40;;;2.10;99.90;;;;;;5040774;28;20144;-74
2022/04/01 01:05:17;;;;;;;3.72;1.30;;;2.90;99.90;;;;;;5045962;28;20032;-77
2022/04/01 01:07:42;;;;;;;2.55;1.48;;;2.30;99.90;;;;;;5051412;28;20033;-78
2022/04/01 01:10:10;;;;;;;4.57;1.58;;;3.40;99.90;;;;;;5037795;28;20052;-78
2022/04/01 01:12:37;;;;;;;3.05;1.33;;;2.70;99.90;;;;;;5048220;28;20041;-75
2022/04/01 01:15:09;;;;;;;1.63;1.45;;;3.20;99.90;;;;;;5059577;28;20341;-75
2022/04/01 01:17:36;;;;;;;2.40;1.15;;;2.40;99.90;;;;;;5062956;28;20036;-77
2022/04/01 01:20:02;;;;;;;4.05;1.63;;;2.50;99.90;;;;;;5078038;28;20041;-77
2022/04/01 01:22:27;;;;;;;2.13;1.27;;;2.40;99.90;;;;;;5070948;28;20040;-77
2022/04/01 01:24:54;;;;;;;3.35;1.40;;;2.30;99.90;;;;;;5056910;28;20107;-76
2022/04/01 01:27:21;;;;;;;4.15;1.50;;;2.30;99.90;;;;;;5053933;28;20060;-74
2022/04/01 01:29:47;;;;;;;1.92;1.30;;;3.20;99.90;;;;;;5046099;28;20090;-74
2022/04/01 01:32:17;;;;;;;2.15;1.40;;;3.30;99.90;;;;;;5063047;28;20040;-76
2022/04/01 01:34:43;;;;;;;3.17;1.40;;;2.90;99.90;;;;;;5060148;28;20047;-76
2022/04/01 01:37:12;;;;;;;3.80;1.60;;;3.50;99.90;;;;;;5063090;28;20048;-75
2022/04/01 01:39:38;;;;;;;3.40;1.45;;;2.70;99.90;;;;;;5080072;28;20036;-76
2022/04/01 01:42:06;;;;;;;3.65;1.15;;;2.80;99.90;;;;;;5068093;28;20090;-75
2022/04/01 01:44:31;;;;;;;2.97;1.70;;;2.70;99.90;;;;;;5055260;28;20037;-75
2022/04/01 01:46:57;;;;;;;3.03;1.35;;;2.60;99.90;;;;;;5066730;28;20048;-76
2022/04/01 01:49:23;;;;;;;5.93;1.70;;;2.70;99.90;;;;;;5081751;28;20048;-75
2022/04/01 01:57:06;;;;;;;4.82;1.75;;;2.90;99.90;;;;;;5063190;28;19928;-76
2022/04/01 01:59:33;;;;;;;3.13;1.40;;;2.80;99.90;;;;;;5080857;28;20040;-77
2022/04/01 02:02:00;;;;;;;2.85;1.50;;;3.00;99.90;;;;;;5045149;28;20036;-76
2022/04/01 02:04:26;;;;;;;4.20;1.40;;;2.90;99.90;;;;;;5049044;28;20091;-75
2022/04/01 02:06:52;;;;;;;2.05;1.33;;;3.00;99.90;;;;;;5044041;28;20068;-76
2022/04/01 02:09:18;;;;;;;3.25;1.55;;;3.50;99.90;;;;;;5061496;28;20041;-76
2022/04/01 02:11:44;;;;;;;2.67;1.58;;;2.80;99.90;;;;;;5057546;28;20068;-77
2022/04/01 02:14:11;;;;;;;3.63;1.48;;;3.10;99.90;;;;;;5038985;28;20093;-77
2022/04/01 02:16:37;;;;;;;3.42;1.50;;;3.50;99.90;;;;;;5039898;28;20040;-77
2022/04/01 02:19:03;;;;;;;2.17;1.20;;;2.80;99.90;;;;;;5047010;28;20059;-77
2022/04/01 02:21:29;;;;;;;4.03;1.50;;;2.80;99.90;;;;;;5028104;28;20045;-77
2022/04/01 02:23:55;;;;;;;3.53;1.80;;;2.70;99.90;;;;;;5046837;28;20139;-76
2022/04/01 02:26:22;;;;;;;3.70;1.33;;;2.70;99.90;;;;;;5063471;28;20033;-76
2022/04/01 02:28:47;;;;;;;9.05;1.52;;;2.80;99.90;;;;;;5063442;28;20036;-75
2022/04/01 02:31:17;;;;;;;3.83;1.60;;;3.40;99.90;;;;;;5059610;28;20059;-76
2022/04/01 02:33:44;;;;;;;3.13;1.40;;;3.60;99.90;;;;;;5052712;28;20041;-76
2022/04/01 02:36:10;;;;;;;4.50;1.80;;;2.70;99.90;;;;;;5062622;28;20103;-76
2022/04/01 02:38:39;;;;;;;2.88;1.20;;;2.70;99.90;;;;;;5056731;28;20080;-76
2022/04/01 02:41:07;;;;;;;2.33;1.13;;;2.80;99.90;;;;;;5082748;28;20044;-76
2022/04/01 02:43:33;;;;;;;3.78;1.65;;;2.70;99.90;;;;;;5069054;28;20036;-75
2022/04/01 02:45:59;;;;;;;4.82;1.35;;;3.00;99.90;;;;;;5068519;28;20056;-76
2022/04/01 02:48:26;;;;;;;3.90;1.33;;;2.90;99.90;;;;;;5071935;28;20336;-75
2022/04/01 02:50:51;;;;;;;6.07;2.20;;;2.70;99.90;;;;;;5066665;28;20327;-76
2022/04/01 02:53:17;;;;;;;4.47;1.77;;;2.80;99.90;;;;;;5083776;28;20035;-76
2022/04/01 02:55:44;;;;;;;3.05;1.73;;;2.80;99.90;;;;;;5067065;28;20040;-76
2022/04/01 02:58:10;;;;;;;2.53;1.40;;;2.70;99.90;;;;;;5084404;28;20315;-75
2022/04/01 03:00:37;;;;;;;4.25;1.30;;;2.70;99.90;;;;;;5062437;28;20037;-75
2022/04/01 03:03:07;;;;;;;4.03;1.50;;;2.70;99.90;;;;;;5075038;28;20222;-76
2022/04/01 03:05:38;;;;;;;6.32;2.28;;;2.70;99.90;;;;;;5050245;28;20040;-76
2022/04/01 03:08:05;;;;;;;2.35;1.20;;;2.70;99.90;;;;;;5069472;28;20036;-76
2022/04/01 03:10:35;;;;;;;2.72;1.45;;;2.70;99.90;;;;;;5075454;28;20055;-76
2022/04/01 03:13:02;;;;;;;4.97;1.65;;;2.80;99.90;;;;;;5072164;28;20070;-76
2022/04/01 03:15:32;;;;;;;2.53;1.20;;;2.70;99.90;;;;;;5050960;28;20052;-76
2022/04/01 03:17:58;;;;;;;1.80;1.10;;;3.30;99.90;;;;;;5081851;28;20079;-76
2022/04/01 03:20:25;;;;;;;5.18;1.63;;;2.70;99.90;;;;;;5065609;28;20060;-77
2022/04/01 03:22:52;;;;;;;3.72;1.52;;;3.70;99.90;;;;;;5079768;28;20108;-76
2022/04/01 03:25:20;;;;;;;3.17;1.58;;;3.40;99.90;;;;;;5060522;28;20184;-76
2022/04/01 03:27:49;;;;;;;2.58;1.67;;;2.70;99.90;;;;;;5083601;28;20044;-77
2022/04/01 03:30:17;;;;;;;2.97;1.38;;;2.70;99.90;;;;;;5067250;28;20163;-77
2022/04/01 03:32:45;;;;;;;4.28;1.35;;;3.50;99.90;;;;;;5081288;28;20028;-76
2022/04/01 03:35:15;;;;;;;1.75;1.08;;;2.80;99.90;;;;;;5049561;28;20112;-76
2022/04/01 03:37:49;;;;;;;2.65;1.13;;;2.90;99.90;;;;;;5042918;28;20081;-75
2022/04/01 03:40:15;;;;;;;1.48;1.10;;;2.70;99.90;;;;;;5039953;28;20200;-75
2022/04/01 03:42:46;;;;;;;3.53;1.35;;;3.40;99.90;;;;;;5008758;28;20060;-75
2022/04/01 03:45:13;;;;;;;3.28;1.10;;;2.60;99.90;;;;;;5030731;28;20051;-75
2022/04/01 03:47:52;;;;;;;1.70;1.10;;;2.70;99.90;;;;;;5030203;28;20053;-77
2022/04/01 03:50:24;;;;;;;5.03;1.10;;;2.80;99.90;;;;;;5045333;28;20167;-75
2022/04/01 03:52:56;;;;;;;2.20;0.93;;;3.60;99.90;;;;;;5045948;28;20170;-75
2022/04/01 03:55:25;;;;;;;3.50;1.30;;;2.70;99.90;;;;;;5037878;28;20037;-76
2022/04/01 03:57:55;;;;;;;2.00;1.15;;;3.60;99.90;;;;;;5042893;28;20049;-77
2022/04/01 04:00:21;;;;;;;3.50;1.20;;;2.70;99.90;;;;;;5045600;28;20368;-76
2022/04/01 04:02:46;;;;;;;5.32;1.52;;;3.00;99.90;;;;;;5016330;28;20052;-75
2022/04/01 04:05:13;;;;;;;2.25;1.20;;;2.70;99.90;;;;;;5033888;28;20239;-74
2022/04/01 04:07:39;;;;;;;2.78;1.30;;;2.70;99.90;;;;;;5029425;28;20044;-75
2022/04/01 04:10:07;;;;;;;4.03;1.30;;;2.90;99.90;;;;;;5029407;28;20052;-75
2022/04/01 04:12:35;;;;;;;2.90;0.80;;;2.60;99.90;;;;;;5029716;28;20220;-76
2022/04/01 04:15:03;;;;;;;2.95;1.30;;;2.60;99.90;;;;;;5045602;28;20041;-76
2022/04/01 04:17:37;;;;;;;2.00;1.10;;;3.40;99.90;;;;;;5046075;28;20051;-76
2022/04/01 04:20:13;;;;;;;;;;;2.80;99.90;;;;;;5030026;28;20166;-76
2022/04/01 04:23:00;;;;;;;;;;;2.60;99.90;;;;;;5030210;28;20114;-76
2022/04/01 04:25:36;;;;;;;1.45;1.00;;;2.50;99.90;;;;;;5049492;28;19920;-76
2022/04/01 04:28:10;;;;;;;4.03;1.58;;;2.60;99.90;;;;;;5046708;28;20300;-75
2022/04/01 04:30:48;;;;;;;3.13;1.20;;;2.70;99.90;;;;;;5045428;28;20041;-76
2022/04/01 04:33:16;;;;;;;3.17;1.73;;;2.70;99.90;;;;;;5047230;28;20040;-76
2022/04/01 04:35:44;;;;;;;1.88;1.20;;;3.30;99.90;;;;;;5026101;28;20052;-75
2022/04/01 04:38:12;;;;;;;2.60;1.25;;;2.70;99.90;;;;;;5062214;28;20079;-76
2022/04/01 04:40:42;;;;;;;1.80;1.13;;;3.60;99.90;;;;;;5052917;28;20339;-76
2022/04/01 04:43:07;;;;;;;4.97;1.38;;;2.30;99.90;;;;;;5028498;28;20102;-76
2022/04/01 04:45:34;;;;;;;3.38;1.30;;;3.60;99.90;;;;;;5027698;28;20430;-76
2022/04/01 04:48:03;;;;;;;2.88;1.30;;;4.00;99.90;;;;;;5042780;28;20207;-76
2022/04/01 04:50:30;;;;;;;3.08;1.00;;;2.70;99.90;;;;;;5030398;28;20076;-76
2022/04/01 04:52:56;;;;;;;2.85;1.10;;;2.60;99.90;;;;;;5054633;28;20049;-76
2022/04/01 04:55:23;;;;;;;5.05;1.55;;;2.60;99.90;;;;;;5025512;28;20045;-76
2022/04/01 04:57:51;;;;;;;3.17;1.00;;;2.70;99.90;;;;;;5044612;28;20040;-77
2022/04/01 05:00:21;;;;;;;2.88;1.30;;;2.70;99.90;;;;;;5028613;28;20040;-76
2022/04/01 05:02:53;;;;;;;2.65;1.38;;;2.70;99.90;;;;;;5059580;28;20327;-76
2022/04/01 05:05:31;;;;;;;1.40;0.93;;;2.60;99.90;;;;;;5044523;28;20040;-76
2022/04/01 05:08:05;;;;;;;2.47;1.40;;;2.60;99.90;;;;;;5051102;28;20051;-76
2022/04/01 05:10:52;;;;;;;2.40;1.00;;;2.60;99.90;;;;;;5060641;28;20045;-76
2022/04/01 05:13:30;;;;;;;1.50;1.20;;;2.70;99.90;;;;;;5044239;28;20673;-77
2022/04/01 05:16:06;;;;;;;5.30;1.40;;;2.60;99.90;;;;;;5040477;28;20263;-77
2022/04/01 05:18:42;;;;;;;2.70;1.10;;;2.60;99.90;;;;;;5024359;28;20092;-77
2022/04/01 05:21:19;;;;;;;2.67;1.42;;;2.70;99.90;;;;;;5019703;28;20037;-77
2022/04/01 05:23:54;;;;;;;5.40;2.17;;;2.70;99.90;;;;;;5059175;28;20060;-77
2022/04/01 05:26:25;;;;;;;3.53;1.25;;;2.70;99.90;;;;;;5037832;28;20039;-77
2022/04/01 05:29:00;;;;;;;2.25;1.00;;;2.90;99.90;;;;;;5065306;28;20074;-78
2022/04/01 05:31:25;;;;;;;3.83;1.40;;;2.70;99.90;;;;;;5030606;28;20041;-77
2022/04/01 05:34:07;;;;;;;3.92;1.20;;;3.00;99.90;;;;;;5045093;28;20044;-77
2022/04/01 05:36:34;;;;;;;4.22;1.40;;;2.70;99.90;;;;;;5030736;28;20024;-76
2022/04/01 05:39:00;;;;;;;2.25;1.20;;;2.70;99.90;;;;;;5037082;28;20094;-76
2022/04/01 05:41:27;;;;;;;1.50;1.10;;;2.70;99.90;;;;;;5064687;28;20119;-76
2022/04/01 05:43:53;;;;;;;3.83;1.45;;;2.70;99.90;;;;;;5061106;28;20040;-77
2022/04/01 05:46:22;;;;;;;4.82;1.23;;;2.70;99.90;;;;;;5057456;28;20094;-75
2022/04/01 05:48:49;;;;;;;3.30;1.15;;;2.70;99.90;;;;;;5064056;28;20101;-76
2022/04/01 05:51:15;;;;;;;3.95;1.40;;;3.50;99.90;;;;;;5080521;28;20381;-76
2022/04/01 05:53:46;;;;;;;4.15;1.95;;;2.70;99.90;;;;;;5064668;28;20107;-78
2022/04/01 05:56:14;;;;;;;3.00;1.40;;;2.80;99.90;;;;;;5080732;28;20352;-76
2022/04/01 05:58:41;;;;;;;2.67;1.30;;;2.70;99.90;;;;;;5079597;28;20103;-75
2022/04/01 06:01:54;;;;;;;3.00;1.42;;;2.80;99.90;;;;;;5081088;28;20615;-76
2022/04/01 06:04:40;;;;;;;2.33;1.30;;;2.70;99.90;;;;;;4984189;28;20050;-76
2022/04/01 06:07:26;;;;;;;1.65;1.33;;;2.80;99.90;;;;;;5071174;28;20044;-76
2022/04/01 06:10:16;;;;;;;2.92;1.55;;;2.80;99.90;;;;;;5051079;28;20036;-75
2022/04/01 06:13:00;;;;;;;3.00;1.02;;;2.80;99.90;;;;;;5067702;28;20356;-76
2022/04/01 06:15:38;;;;;;;2.28;1.50;;;2.80;99.90;;;;;;5057108;28;20090;-76
2022/04/01 06:18:25;;;;;;;1.52;1.10;;;2.80;99.90;;;;;;5061010;28;20114;-77
2022/04/01 06:20:54;;;;;;;1.63;1.30;;;2.80;99.90;;;;;;5065121;28;20405;-77
2022/04/01 06:23:49;;;;;;;5.93;1.42;;;3.10;99.90;;;;;;5056257;28;20093;-76
2022/04/01 06:26:16;;;;;;;1.63;1.05;;;2.80;99.90;;;;;;5009416;28;20100;-75
2022/04/01 06:29:09;;;;;;;1.95;1.10;;;3.00;99.90;;;;;;5069660;28;20103;-76
2022/04/01 06:31:35;;;;;;;2.50;1.35;;;3.40;99.90;;;;;;5079794;28;20043;-74
2022/04/01 06:34:15;;;;;;;2.63;1.00;;;2.80;99.90;;;;;;5066550;28;20064;-77
2022/04/01 06:36:46;;;;;;;1.90;1.13;;;3.00;99.90;;;;;;5077168;28;20095;-78
2022/04/01 06:39:26;;;;;;;1.90;1.30;;;2.90;99.90;;;;;;5074981;28;20037;-77
2022/04/01 06:41:57;;;;;;;2.47;1.05;;;2.90;99.90;;;;;;5064123;28;20479;-76
2022/04/01 06:44:23;;;;;;;2.22;1.20;;;3.00;99.90;;;;;;5050250;28;20036;-77
2022/04/01 06:46:50;;;;;;;2.40;1.08;;;2.90;99.90;;;;;;5044041;28;20109;-76
2022/04/01 06:49:16;;;;;;;1.55;1.15;;;2.90;99.90;;;;;;5061556;28;20055;-77
2022/04/01 06:51:42;;;;;;;2.38;1.08;;;3.50;99.90;;;;;;5064294;28;20322;-75
2022/04/01 06:54:08;;;;;;;2.13;1.05;;;2.90;99.90;;;;;;5062183;28;20032;-77
2022/04/01 06:56:34;;;;;;;1.35;0.95;;;3.00;99.90;;;;;;5058160;28;20375;-78
2022/04/01 06:59:00;;;;;;;1.33;0.88;;;3.00;99.90;;;;;;5056517;28;20235;-77
2022/04/01 07:01:26;;;;;;;1.67;1.02;;;2.90;99.90;;;;;;5045513;28;20044;-77
2022/04/01 07:03:53;;;;;;;3.08;0.98;;;3.70;99.90;;;;;;5073897;28;20094;-79
2022/04/01 07:06:20;;;;;;;1.50;1.17;;;2.70;99.90;;;;;;5047065;28;20239;-79
2022/04/01 07:08:47;;;;;;;1.65;0.90;;;3.00;99.90;;;;;;5062107;28;20048;-79
2022/04/01 07:11:16;;;;;;;2.00;1.00;;;2.90;99.90;;;;;;5078794;28;20099;-79
2022/04/01 07:13:42;;;;;;;2.97;0.90;;;2.80;99.90;;;;;;5080410;28;20066;-79
2022/04/01 07:16:10;;;;;;;1.85;1.10;;;3.90;99.90;;;;;;5061675;28;20039;-77
2022/04/01 07:18:36;;;;;;;1.38;0.77;;;3.70;99.90;;;;;;5031517;28;20029;-77
2022/04/01 07:21:02;;;;;;;1.05;0.80;;;2.80;99.90;;;;;;5038984;28;20370;-75
2022/04/01 07:23:28;;;;;;;2.45;1.20;;;2.80;99.90;;;;;;5081347;28;20107;-76
2022/04/01 07:25:53;;;;;;;2.20;1.02;;;2.80;99.90;;;;;;5065548;28;20055;-77
2022/04/01 07:28:19;;;;;;;1.75;1.00;;;2.70;99.90;;;;;;5049090;28;20029;-77
2022/04/01 07:30:45;;;;;;;1.10;0.88;;;2.70;99.90;;;;;;5058781;28;20098;-79
2022/04/01 07:33:11;;;;;;;4.25;1.20;;;2.70;99.90;;;;;;5078618;28;20104;-78
2022/04/01 07:35:37;;;;;;;1.08;0.88;;;2.80;99.90;;;;;;5083247;28;20032;-77
2022/04/01 07:38:03;;;;;;;2.88;1.08;;;2.70;99.90;;;;;;5065558;28;20056;-80
2022/04/01 07:40:30;;;;;;;1.70;1.27;;;2.60;99.90;;;;;;5048222;28;20091;-79
2022/04/01 07:42:56;;;;;;;2.13;1.23;;;2.60;99.90;;;;;;5056710;28;20040;-79
2022/04/01 07:45:22;;;;;;;2.88;1.65;;;3.50;99.90;;;;;;5045606;28;20080;-81
2022/04/01 07:47:50;;;;;;;2.03;1.40;;;2.80;99.90;;;;;;5066907;28;20103;-80
2022/04/01 07:50:17;;;;;;;6.05;1.70;;;3.90;99.90;;;;;;5032927;28;20184;-78
2022/04/01 07:52:43;;;;;;;2.33;1.17;;;2.70;99.90;;;;;;5049938;28;20044;-79
2022/04/01 07:55:11;;;;;;;1.88;1.13;;;2.60;99.90;;;;;;5078764;28;20372;-80
2022/04/01 07:57:39;;;;;;;2.30;1.13;;;2.50;99.90;;;;;;5049577;28;20412;-79
2022/04/01 08:00:07;;;;;;;2.28;1.30;;;2.80;99.90;;;;;;5077635;28;20139;-78
2022/04/01 08:02:33;;;;;;;3.25;1.73;;;2.50;99.90;;;;;;5052050;28;20044;-80
2022/04/01 08:04:59;;;;;;;3.70;1.17;;;2.70;99.90;;;;;;5059763;28;20051;-79
2022/04/01 08:07:27;;;;;;;2.90;1.33;;;2.80;99.90;;;;;;5048380;28;20040;-79
2022/04/01 08:09:53;;;;;;;2.22;1.40;;;2.80;99.90;;;;;;5066042;28;20603;-78
2022/04/01 08:12:19;;;;;;;4.05;1.45;;;2.90;99.90;;;;;;5055096;28;20203;-78
2022/04/01 08:14:45;;;;;;;2.17;1.20;;;2.80;99.90;;;;;;5075031;28;20074;-77
2022/04/01 08:17:12;;;;;;;2.80;1.40;;;2.90;99.90;;;;;;5051533;28;20039;-77
2022/04/01 08:19:39;;;;;;;3.10;2.28;;;3.90;99.90;;;;;;5047637;28;20060;-78
2022/04/01 08:22:05;;;;;;;2.85;1.60;;;3.30;99.90;;;;;;5059021;28;20415;-78
2022/04/01 08:24:31;;;;;;;3.47;1.50;;;3.20;99.90;;;;;;5078429;28;20042;-80
2022/04/01 08:26:59;;;;;;;3.38;1.30;;;3.40;99.90;;;;;;5047586;28;20343;-79
2022/04/01 08:29:26;;;;;;;2.75;1.40;;;3.00;99.90;;;;;;5062156;28;20051;-75
2022/04/01 08:31:51;;;;;;;4.38;1.90;;;3.10;99.90;;;;;;5074542;28;20072;-77
2022/04/01 08:34:17;;;;;;;2.47;1.73;;;3.40;99.90;;;;;;5062814;28;20206;-77
2022/04/01 08:36:43;;;;;;;4.18;1.48;;;3.10;99.90;;;;;;5064942;28;20037;-76
2022/04/01 08:39:09;;;;;;;2.65;1.20;;;3.00;99.90;;;;;;5052908;28;20044;-76
2022/04/01 08:41:35;;;;;;;2.95;1.35;;;3.00;99.90;;;;;;5078183;28;20044;-77
2022/04/01 08:44:03;;;;;;;4.18;2.00;;;3.00;99.90;;;;;;5044496;28;20037;-75
2022/04/01 08:46:29;;;;;;;3.30;1.50;;;3.10;99.90;;;;;;5080793;28;20044;-75
2022/04/01 08:48:55;;;;;;;2.90;1.25;;;3.60;99.90;;;;;;5065590;28;20049;-78
2022/04/01 08:51:21;;;;;;;1.70;1.10;;;3.60;99.90;;;;;;5047731;28;20376;-77
2022/04/01 08:53:46;;;;;;;4.05;1.55;;;3.10;99.90;;;;;;5064772;28;20123;-76
2022/04/01 08:56:14;;;;;;;2.85;1.60;;;3.00;99.90;;;;;;5041588;28;20032;-75
2022/04/01 08:58:40;;;;;;;1.92;1.17;;;3.10;99.90;;;;;;5076692;28;20090;-76
2022/04/01 09:01:07;;;;;;;4.25;1.90;;;4.20;99.90;;;;;;5038303;28;20033;-77
2022/04/01 09:03:36;;;;;;;2.78;1.60;;;3.50;99.90;;;;;;5067426;28;20204;-76
2022/04/01 09:06:03;;;;;;;4.25;2.35;;;3.60;99.90;;;;;;5079748;28;20062;-76
2022/04/01 09:08:37;;;;;;;3.88;1.80;;;3.70;99.90;;;;;;5075055;28;20052;-75
2022/04/01 09:11:11;;;;;;;3.95;1.90;;;4.00;99.90;;;;;;5065839;28;20036;-76
2022/04/01 09:13:43;;;;;;;4.32;2.35;;;4.00;99.90;;;;;;5069615;28;20055;-75
2022/04/01 09:16:21;;;;;;;4.22;1.60;;;4.00;99.90;;;;;;5074004;28;20040;-76
2022/04/01 09:18:47;;;;;;;4.00;2.65;;;4.30;99.90;;;;;;5063676;28;20052;-76
2022/04/01 09:21:14;;;;;;;3.08;2.22;;;4.50;99.90;;;;;;5037389;28;20234;-73
2022/04/01 09:23:46;;;;;;;4.18;2.40;;;4.60;99.90;;;;;;5026891;28;20143;-75
2022/04/01 09:26:12;;;;;;;3.85;1.90;;;5.00;99.90;;;;;;5073459;28;20057;-74
2022/04/01 09:28:42;;;;;;;4.57;2.50;;;4.80;99.90;;;;;;5057917;28;20283;-74
2022/04/01 09:31:12;;;;;;;4.95;2.33;;;4.80;99.90;;;;;;5057519;28;20107;-76
2022/04/01 09:33:54;;;;;;;4.00;2.65;;;4.90;99.90;;;;;;5058931;28;20056;-72
2022/04/01 09:36:26;;;;;;;5.03;2.55;;;5.40;99.90;;;;;;5059916;28;20137;-74
2022/04/01 09:39:06;;;;;;;3.92;2.50;;;5.10;99.90;;;;;;5056503;28;20071;-75
2022/04/01 09:41:33;;;;;;;4.95;3.00;;;4.70;99.90;;;;;;5072432;28;20048;-74
2022/04/01 09:44:12;;;;;;;3.97;2.40;;;4.80;99.90;;;;;;5058763;28;20101;-75
2022/04/01 09:46:46;;;;;;;3.95;2.10;;;5.00;99.90;;;;;;5063748;28;20135;-75
2022/04/01 09:49:14;;;;;;;3.92;3.03;;;4.90;99.90;;;;;;5050969;28;20111;-75
2022/04/01 09:51:43;;;;;;;6.95;4.70;;;5.40;99.90;;;;;;5043806;28;20421;-74
2022/04/01 09:54:10;;;;;;;5.07;2.88;;;6.00;99.90;;;;;;5063441;28;20271;-73
2022/04/01 09:56:46;;;;;;;3.30;2.20;;;5.10;99.90;;;;;;5074414;28;20442;-74
2022/04/01 09:59:15;;;;;;;5.13;2.50;;;5.00;99.90;;;;;;5063002;28;20119;-74
2022/04/01 10:01:43;;;;;;;3.08;2.35;;;5.10;99.90;;;;;;5066488;28;20052;-74
2022/04/01 10:04:12;;;;;;;3.33;2.20;;;5.00;99.90;;;;;;5054897;28;20044;-74
2022/04/01 10:06:39;;;;;;;5.03;2.40;;;5.10;99.90;;;;;;5070434;28;20059;-74
2022/04/01 10:09:09;;;;;;;2.05;1.55;;;5.90;99.90;;;;;;5063590;28;20121;-75
2022/04/01 10:11:41;;;;;;;5.85;2.30;;;5.20;99.90;;;;;;5056847;28;20275;-75
2022/04/01 10:14:13;;;;;;;5.13;1.80;;;5.30;99.90;;;;;;5041299;28;20323;-74
2022/04/01 10:16:43;;;;;;;2.95;1.73;;;5.30;99.90;;;;;;5057870;28;20049;-74
2022/04/01 10:19:14;;;;;;;6.30;1.92;;;5.00;99.90;;;;;;5059012;28;20390;-74
2022/04/01 10:21:48;;;;;;;2.72;1.80;;;4.80;99.90;;;;;;5048693;28;20099;-74
2022/04/01 10:24:14;;;;;;;2.65;1.85;;;4.70;99.90;;;;;;5048171;28;20302;-75
2022/04/01 10:26:56;;;;;;;5.30;1.90;;;5.00;99.90;;;;;;5057814;28;20055;-74
2022/04/01 10:29:23;;;;;;;5.93;2.03;;;4.80;99.90;;;;;;5069522;28;20222;-74
2022/04/01 10:31:55;;;;;;;3.78;2.10;;;4.80;99.90;;;;;;5043457;28;20154;-75
2022/04/01 10:34:24;;;;;;;3.42;1.92;;;4.60;99.90;;;;;;5053788;28;20041;-74
2022/04/01 10:36:59;;;;;;;6.95;2.28;;;4.60;99.90;;;;;;5053890;28;20347;-75
2022/04/01 10:39:25;;;;;;;3.75;2.50;;;5.10;99.90;;;;;;5045651;28;20044;-75
2022/04/01 10:42:12;;;;;;;6.78;2.03;;;4.90;99.90;;;;;;5064666;28;20362;-74
2022/04/01 10:44:44;;;;;;;3.03;2.00;;;5.10;99.90;;;;;;5068997;28;20055;-74
2022/04/01 10:47:10;;;;;;;5.30;2.20;;;4.70;99.90;;;;;;5057587;28;20055;-75
2022/04/01 10:52:24;;;;;;;4.53;1.85;;;5.00;99.90;;;;;;5071954;28;20257;-74
2022/04/01 10:55:06;;;;;;;2.92;2.15;;;5.40;99.90;;;;;;5048568;28;20052;-74
2022/04/01 10:57:44;;;;;;;3.08;2.00;;;5.10;99.90;;;;;;5066514;28;20032;-74
2022/04/01 11:00:15;;;;;;;4.82;2.13;;;5.50;99.90;;;;;;5067395;28;20048;-75
2022/04/01 11:02:43;;;;;;;3.95;2.10;;;5.50;99.90;;;;;;5041581;28;20111;-75
2022/04/01 11:05:23;;;;;;;8.15;2.17;;;5.60;99.90;;;;;;5077185;28;20082;-75
2022/04/01 11:08:16;;;;;;;5.03;1.85;;;5.40;99.90;;;;;;5056788;28;20040;-75
2022/04/01 11:11:09;;;;;;;5.15;2.08;;;5.20;99.90;;;;;;5065604;28;20048;-75
2022/04/01 11:13:36;;;;;;;4.80;2.10;;;5.30;99.90;;;;;;5069267;28;20063;-75
2022/04/01 11:16:25;;;;;;;3.45;1.75;;;5.40;99.90;;;;;;5060852;28;20090;-74
2022/04/01 11:19:12;;;;;;;2.83;1.75;;;5.40;99.90;;;;;;5073459;28;20376;-75
2022/04/01 11:21:39;;;;;;;4.15;1.75;;;5.40;99.90;;;;;;5049226;28;20052;-74
2022/04/01 11:24:38;;;;;;;2.80;1.85;;;5.00;99.90;;;;;;5057921;28;20216;-74
2022/04/01 11:27:22;;;;;;;2.78;1.60;;;4.40;99.90;;;;;;5067680;28;20047;-74
2022/04/01 11:30:12;;;;;;;2.72;1.50;;;5.20;99.90;;;;;;5071508;28;20040;-75
2022/04/01 11:32:40;;;;;;;2.40;1.70;;;5.00;99.90;;;;;;5076527;28;20060;-75
2022/04/01 11:35:08;;;;;;;2.95;1.30;;;5.00;99.90;;;;;;5058407;28;20045;-74
2022/04/01 11:37:45;;;;;;;2.75;1.60;;;5.10;99.90;;;;;;5059997;28;20090;-75
2022/04/01 11:40:26;;;;;;;4.97;1.77;;;5.00;99.90;;;;;;5042341;28;20056;-74
2022/04/01 11:43:02;;;;;;;3.45;1.48;;;5.10;99.90;;;;;;5064084;28;20040;-75
2022/04/01 11:45:40;;;;;;;5.32;1.50;;;5.20;99.90;;;;;;5053906;28;20055;-74
2022/04/01 11:48:26;;;;;;;3.90;1.50;;;4.90;99.90;;;;;;5075269;28;20053;-76
2022/04/01 11:51:16;;;;;;;1.83;1.25;;;4.80;99.90;;;;;;5046105;28;20048;-75
2022/04/01 11:53:47;;;;;;;2.80;1.20;;;4.70;99.90;;;;;;5059069;28;20044;-74
2022/04/01 11:56:17;;;;;;;3.70;1.25;;;4.60;99.90;;;;;;5068116;28;20122;-75
2022/04/01 11:59:00;;;;;;;2.67;1.42;;;4.70;99.90;;;;;;5051146;28;20039;-76
2022/04/01 12:01:30;;;;;;;1.92;1.30;;;4.70;99.90;;;;;;5058961;28;20044;-74
2022/04/01 12:04:08;;;;;;;1.70;1.10;;;4.80;99.90;;;;;;5075945;28;20048;-75
2022/04/01 12:09:34;;;;;;;1.58;1.20;;;4.80;99.90;;;;;;5055684;28;20079;-74
2022/04/01 12:12:01;;;;;;;2.72;1.15;;;4.90;99.90;;;;;;5069108;28;20045;-75
2022/04/01 12:14:28;;;;;;;2.60;1.65;;;4.90;99.90;;;;;;5056858;28;20050;-74
2022/04/01 12:16:54;;;;;;;2.38;1.30;;;6.00;99.90;;;;;;5065774;28;20349;-75
2022/04/01 12:19:21;;;;;;;3.75;1.40;;;4.80;99.90;;;;;;5069319;28;20518;-75
2022/04/01 12:21:53;;;;;;;4.35;1.35;;;4.70;99.90;;;;;;5050789;28;20052;-75
2022/04/01 12:24:19;;;;;;;3.95;1.80;;;4.90;99.90;;;;;;5075723;28;20094;-75
2022/04/01 12:26:47;;;;;;;3.10;1.40;;;5.10;99.90;;;;;;5073277;28;20054;-75
2022/04/01 12:29:25;;;;;;;4.03;1.40;;;4.90;99.90;;;;;;5057904;28;20267;-75
2022/04/01 12:31:56;;;;;;;3.47;1.90;;;4.70;99.90;;;;;;5058296;28;20101;-74
2022/04/01 12:34:23;;;;;;;7.40;1.75;;;4.80;99.90;;;;;;5047667;28;20094;-75
2022/04/01 12:37:03;;;;;;;3.45;1.95;;;4.70;99.90;;;;;;5048695;28;20041;-75
2022/04/01 12:39:30;;;;;;;2.10;1.40;;;4.80;99.90;;;;;;5040507;28;20053;-74
2022/04/01 12:42:08;;;;;;;3.88;1.50;;;4.50;99.90;;;;;;5041875;28;20048;-75
2022/04/01 12:44:35;;;;;;;3.92;1.48;;;4.60;99.90;;;;;;5041690;28;20079;-75
2022/04/01 12:47:05;;;;;;;2.33;1.42;;;4.80;99.90;;;;;;5042089;28;20048;-75
2022/04/01 12:49:33;;;;;;;2.90;1.80;;;4.80;99.90;;;;;;5056159;28;20049;-75
2022/04/01 12:52:01;;;;;;;2.97;1.50;;;5.10;99.90;;;;;;5057448;28;20335;-75
2022/04/01 12:54:38;;;;;;;3.35;1.75;;;5.00;99.90;;;;;;5058276;28;20335;-75
2022/04/01 12:57:12;;;;;;;3.35;1.67;;;5.00;99.90;;;;;;5058637;28;20048;-74
2022/04/01 12:59:39;;;;;;;;;;;5.10;99.90;;;;;;5056822;28;20107;-75
2022/04/01 13:02:17;;;;;;;3.90;1.60;;;5.00;99.90;;;;;;5057189;28;19920;-75
2022/04/01 13:04:49;;;;;;;3.25;1.17;;;4.80;99.90;;;;;;5057881;28;20044;-75
2022/04/01 13:07:18;;;;;;;2.47;1.33;;;4.70;99.90;;;;;;5036145;28;20115;-74
2022/04/01 13:09:52;;;;;;;1.67;1.10;;;4.80;99.90;;;;;;5056490;28;20048;-74
2022/04/01 13:12:37;;;;;;;1.65;1.27;;;4.70;99.90;;;;;;5056887;28;20064;-74
2022/04/01 13:15:05;;;;;;;1.20;0.98;;;4.80;99.90;;;;;;5057772;28;20045;-74
2022/04/01 13:17:45;;;;;;;2.13;1.20;;;4.70;99.90;;;;;;5058057;28;20044;-74
2022/04/01 13:20:14;;;;;;;3.08;0.93;;;4.70;99.90;;;;;;5032214;28;20330;-74
2022/04/01 13:22:41;;;;;;;2.55;1.30;;;4.70;99.90;;;;;;5035454;28;20044;-74
2022/04/01 13:25:08;;;;;;;3.25;1.20;;;4.80;99.90;;;;;;5057354;28;20048;-74